createdAt,value
2018-04-13T00:00:48.183Z,0.00
2018-04-13T00:01:48.137Z,0.00
2018-04-13T00:02:48.105Z,0.00
2018-04-13T00:03:48.093Z,0.00
2018-04-13T00:04:48.020Z,0.00
2018-04-13T00:05:47.976Z,0.00
2018-04-13T00:06:47.951Z,0.00
2018-04-13T00:07:47.904Z,0.00
2018-04-13T00:08:47.854Z,0.00
2018-04-13T00:09:47.848Z,0.00
2018-04-13T00:10:47.777Z,0.00
2018-04-13T00:11:47.744Z,0.00
2018-04-13T00:12:47.707Z,0.00
2018-04-13T00:13:47.655Z,0.00
2018-04-13T00:14:47.653Z,0.00
2018-04-13T00:15:47.581Z,0.00
2018-04-13T00:16:47.532Z,0.00
2018-04-13T00:17:47.500Z,0.00
2018-04-13T00:18:47.456Z,0.00
2018-04-13T00:19:47.433Z,0.00
2018-04-13T00:20:47.410Z,0.00
2018-04-13T00:21:47.341Z,0.00
2018-04-13T00:22:47.303Z,0.00
2018-04-13T00:23:47.264Z,0.00
2018-04-13T00:24:47.225Z,0.00
2018-04-13T00:25:47.191Z,0.00
2018-04-13T00:26:47.183Z,0.00
2018-04-13T00:27:47.094Z,0.00
2018-04-13T00:28:47.072Z,0.00
2018-04-13T00:29:47.024Z,0.00
2018-04-13T00:30:46.978Z,0.00
2018-04-13T00:31:46.966Z,0.00
2018-04-13T00:32:46.899Z,0.00
2018-04-13T00:33:46.854Z,0.00
2018-04-13T00:34:46.825Z,0.00
2018-04-13T00:35:46.771Z,0.00
2018-04-13T00:36:46.751Z,0.00
2018-04-13T00:37:46.728Z,0.00
2018-04-13T00:38:46.659Z,0.00
2018-04-13T00:39:46.615Z,0.00
2018-04-13T00:40:46.582Z,0.00
2018-04-13T00:41:46.540Z,0.00
2018-04-13T00:42:46.525Z,0.00
2018-04-13T00:43:46.480Z,0.00
2018-04-13T00:44:46.416Z,0.00
2018-04-13T00:45:46.370Z,0.00
2018-04-13T00:46:46.371Z,0.00
2018-04-13T00:47:46.305Z,0.00
2018-04-13T00:48:46.281Z,0.00
2018-04-13T00:49:46.219Z,0.00
2018-04-13T00:50:46.174Z,0.00
2018-04-13T00:51:46.135Z,0.00
2018-04-13T00:52:46.099Z,0.00
2018-04-13T00:53:46.076Z,0.00
2018-04-13T00:54:46.016Z,0.00
2018-04-13T00:55:45.971Z,0.00
2018-04-13T00:56:45.944Z,0.00
2018-04-13T00:57:45.891Z,0.00
2018-04-13T00:58:45.853Z,0.00
2018-04-13T00:59:45.846Z,0.00
2018-04-13T01:00:45.764Z,0.00
2018-04-13T01:01:45.734Z,0.00
2018-04-13T01:02:45.705Z,0.00
2018-04-13T01:03:45.650Z,0.00
2018-04-13T01:04:45.653Z,0.00
2018-04-13T01:05:45.562Z,0.00
2018-04-13T01:06:45.538Z,0.00
2018-04-13T01:07:45.491Z,0.00
2018-04-13T01:08:45.450Z,0.00
2018-04-13T01:09:45.405Z,0.00
2018-04-13T01:10:45.393Z,0.00
2018-04-13T01:11:45.335Z,0.00
2018-04-13T01:12:45.279Z,0.00
2018-04-13T01:13:45.244Z,0.00
2018-04-13T01:14:45.199Z,0.00
2018-04-13T01:15:45.161Z,0.00
2018-04-13T01:16:45.157Z,0.00
2018-04-13T01:17:45.087Z,0.00
2018-04-13T01:18:45.071Z,0.00
2018-04-13T01:19:45.006Z,0.00
2018-04-13T01:20:44.988Z,0.00
2018-04-13T01:21:44.920Z,0.00
2018-04-13T01:22:44.882Z,0.00
2018-04-13T01:23:44.840Z,0.00
2018-04-13T01:24:44.810Z,0.00
2018-04-13T01:25:44.789Z,0.00
2018-04-13T01:26:44.723Z,0.00
2018-04-13T01:27:44.674Z,0.00
2018-04-13T01:28:44.643Z,0.00
2018-04-13T01:29:44.591Z,0.00
2018-04-13T01:30:44.565Z,0.00
2018-04-13T01:31:44.543Z,0.00
2018-04-13T01:32:44.480Z,0.00
2018-04-13T01:33:44.434Z,0.00
2018-04-13T01:34:44.389Z,0.00
2018-04-13T01:35:44.354Z,0.00
2018-04-13T01:36:44.349Z,0.00
2018-04-13T01:37:44.276Z,0.00
2018-04-13T01:38:44.239Z,0.00
2018-04-13T01:39:44.186Z,0.00
2018-04-13T01:40:44.146Z,0.00
2018-04-13T01:41:44.117Z,0.00
2018-04-13T01:42:44.100Z,0.00
2018-04-13T01:43:44.034Z,0.00
2018-04-13T01:44:43.988Z,0.00
2018-04-13T01:45:43.957Z,0.00
2018-04-13T01:46:43.908Z,0.00
2018-04-13T01:47:43.901Z,0.00
2018-04-13T01:48:43.826Z,0.00
2018-04-13T01:49:43.785Z,0.00
2018-04-13T01:50:43.749Z,0.00
2018-04-13T01:51:43.713Z,0.00
2018-04-13T01:52:43.688Z,0.00
2018-04-13T01:53:43.627Z,0.00
2018-04-13T01:54:43.590Z,0.00
2018-04-13T01:55:43.546Z,0.00
2018-04-13T01:56:43.507Z,0.00
2018-04-13T01:57:43.462Z,0.00
2018-04-13T01:58:43.442Z,0.00
2018-04-13T01:59:43.375Z,0.00
2018-04-13T02:00:43.342Z,0.00
2018-04-13T02:01:43.293Z,0.00
2018-04-13T02:02:43.258Z,0.00
2018-04-13T02:03:43.249Z,0.00
2018-04-13T02:04:43.174Z,0.00
2018-04-13T02:05:43.138Z,0.00
2018-04-13T02:06:43.085Z,0.00
2018-04-13T02:07:43.065Z,0.00
2018-04-13T02:08:43.008Z,0.00
2018-04-13T02:09:43.006Z,0.00
2018-04-13T02:10:42.934Z,0.00
2018-04-13T02:11:42.891Z,0.00
2018-04-13T02:12:42.842Z,0.00
2018-04-13T02:13:42.814Z,0.00
2018-04-13T02:14:42.764Z,0.00
2018-04-13T02:15:42.760Z,0.00
2018-04-13T02:16:42.687Z,0.00
2018-04-13T02:17:42.665Z,0.00
2018-04-13T02:18:42.607Z,0.00
2018-04-13T02:19:42.565Z,0.00
2018-04-13T02:20:42.551Z,0.00
2018-04-13T02:21:42.476Z,0.00
2018-04-13T02:22:42.447Z,0.00
2018-04-13T02:23:42.396Z,0.00
2018-04-13T02:24:42.354Z,0.00
2018-04-13T02:25:42.323Z,0.00
2018-04-13T02:26:42.311Z,0.00
2018-04-13T02:27:42.239Z,0.00
2018-04-13T02:28:42.202Z,0.00
2018-04-13T02:29:42.156Z,0.00
2018-04-13T02:30:42.109Z,0.00
2018-04-13T02:31:42.079Z,0.00
2018-04-13T02:32:42.069Z,0.00
2018-04-13T02:33:41.990Z,0.00
2018-04-13T02:34:42.005Z,0.00
2018-04-13T02:35:41.910Z,0.00
2018-04-13T02:36:41.868Z,0.00
2018-04-13T02:37:41.833Z,0.00
2018-04-13T02:38:41.812Z,0.00
2018-04-13T02:39:41.756Z,0.00
2018-04-13T02:40:41.704Z,0.00
2018-04-13T02:41:41.703Z,0.00
2018-04-13T02:42:41.619Z,0.00
2018-04-13T02:43:41.613Z,0.00
2018-04-13T02:44:41.539Z,0.00
2018-04-13T02:45:41.501Z,0.00
2018-04-13T02:46:41.465Z,0.00
2018-04-13T02:47:41.417Z,0.00
2018-04-13T02:48:41.378Z,0.00
2018-04-13T02:49:41.360Z,0.00
2018-04-13T02:50:41.311Z,0.00
2018-04-13T02:51:41.248Z,0.00
2018-04-13T02:52:41.215Z,0.00
2018-04-13T02:53:41.180Z,0.00
2018-04-13T02:54:41.134Z,0.00
2018-04-13T02:55:41.118Z,0.00
2018-04-13T02:56:41.047Z,0.00
2018-04-13T02:57:41.035Z,0.00
2018-04-13T02:58:40.963Z,0.00
2018-04-13T02:59:40.924Z,0.00
2018-04-13T03:00:40.925Z,0.00
2018-04-13T03:01:40.870Z,0.00
2018-04-13T03:02:40.801Z,0.00
2018-04-13T03:03:40.786Z,0.00
2018-04-13T03:04:40.717Z,0.00
2018-04-13T03:05:40.683Z,0.00
2018-04-13T03:06:40.666Z,0.00
2018-04-13T03:07:40.599Z,0.00
2018-04-13T03:08:40.554Z,0.00
2018-04-13T03:09:40.513Z,0.00
2018-04-13T03:10:40.473Z,0.00
2018-04-13T03:11:40.437Z,0.00
2018-04-13T03:12:40.417Z,0.00
2018-04-13T03:13:40.356Z,0.00
2018-04-13T03:14:40.325Z,0.00
2018-04-13T03:15:40.276Z,0.00
2018-04-13T03:16:40.229Z,0.00
2018-04-13T03:17:40.215Z,0.00
2018-04-13T03:18:40.145Z,0.00
2018-04-13T03:19:40.101Z,0.00
2018-04-13T03:20:40.059Z,0.00
2018-04-13T03:21:40.014Z,0.00
2018-04-13T03:22:39.978Z,0.00
2018-04-13T03:23:39.975Z,0.00
2018-04-13T03:24:39.898Z,0.00
2018-04-13T03:25:39.865Z,0.00
2018-04-13T03:26:39.808Z,0.00
2018-04-13T03:27:39.777Z,0.00
2018-04-13T03:28:39.737Z,0.00
2018-04-13T03:29:39.716Z,0.00
2018-04-13T03:30:39.650Z,0.00
2018-04-13T03:31:39.614Z,0.00
2018-04-13T03:32:39.568Z,0.00
2018-04-13T03:33:39.532Z,0.00
2018-04-13T03:34:39.485Z,0.00
2018-04-13T03:35:39.486Z,0.00
2018-04-13T03:36:39.403Z,0.00
2018-04-13T03:37:39.362Z,0.00
2018-04-13T03:38:39.319Z,0.00
2018-04-13T03:39:39.287Z,0.00
2018-04-13T03:40:39.274Z,0.00
2018-04-13T03:41:39.192Z,0.00
2018-04-13T03:42:39.158Z,0.00
2018-04-13T03:43:39.116Z,0.00
2018-04-13T03:44:39.080Z,0.00
2018-04-13T03:45:39.031Z,0.00
2018-04-13T03:46:39.020Z,0.00
2018-04-13T03:47:38.956Z,0.00
2018-04-13T03:48:38.913Z,0.00
2018-04-13T03:49:38.860Z,0.00
2018-04-13T03:50:38.828Z,0.00
2018-04-13T03:51:38.789Z,0.00
2018-04-13T03:52:38.778Z,0.00
2018-04-13T03:53:38.703Z,0.00
2018-04-13T03:54:38.671Z,0.00
2018-04-13T03:55:38.618Z,0.00
2018-04-13T03:56:38.573Z,0.00
2018-04-13T03:57:38.588Z,0.00
2018-04-13T03:58:38.509Z,0.00
2018-04-13T03:59:38.458Z,0.00
2018-04-13T04:00:38.419Z,0.00
2018-04-13T04:01:38.365Z,0.00
2018-04-13T04:02:38.340Z,0.00
2018-04-13T04:03:38.317Z,0.00
2018-04-13T04:04:38.247Z,0.00
2018-04-13T04:05:38.211Z,0.00
2018-04-13T04:06:38.169Z,0.00
2018-04-13T04:07:38.150Z,0.00
2018-04-13T04:08:38.080Z,0.00
2018-04-13T04:09:38.072Z,0.00
2018-04-13T04:10:38.003Z,0.00
2018-04-13T04:11:37.959Z,4.00
2018-04-13T04:12:37.923Z,4.00
2018-04-13T04:13:37.881Z,4.00
2018-04-13T04:14:37.874Z,4.00
2018-04-13T04:15:37.810Z,4.00
2018-04-13T04:16:37.744Z,8.00
2018-04-13T04:17:37.716Z,4.00
2018-04-13T04:18:37.669Z,8.00
2018-04-13T04:19:37.629Z,8.00
2018-04-13T04:20:37.617Z,8.00
2018-04-13T04:21:37.546Z,12.00
2018-04-13T04:22:37.511Z,12.00
2018-04-13T04:23:37.458Z,16.00
2018-04-13T04:24:37.422Z,20.00
2018-04-13T04:25:37.380Z,20.00
2018-04-13T04:26:37.373Z,24.00
2018-04-13T04:27:37.300Z,28.00
2018-04-13T04:28:37.255Z,36.00
2018-04-13T04:29:37.215Z,40.00
2018-04-13T04:30:37.169Z,44.00
2018-04-13T04:31:37.130Z,48.00
2018-04-13T04:32:37.120Z,56.00
2018-04-13T04:33:37.045Z,60.00
2018-04-13T04:34:37.023Z,68.00
2018-04-13T04:35:36.965Z,76.00
2018-04-13T04:36:36.924Z,84.00
2018-04-13T04:37:36.915Z,92.00
2018-04-13T04:38:36.845Z,100.00
2018-04-13T04:39:36.798Z,112.00
2018-04-13T04:40:36.758Z,124.00
2018-04-13T04:41:36.728Z,128.00
2018-04-13T04:42:36.673Z,144.00
2018-04-13T04:43:36.661Z,152.00
2018-04-13T04:44:36.598Z,164.00
2018-04-13T04:45:36.556Z,180.00
2018-04-13T04:46:36.519Z,196.00
2018-04-13T04:47:36.470Z,212.00
2018-04-13T04:48:36.445Z,228.00
2018-04-13T04:49:36.414Z,244.00
2018-04-13T04:50:36.349Z,264.00
2018-04-13T04:51:36.302Z,284.00
2018-04-13T04:52:36.270Z,304.00
2018-04-13T04:53:36.220Z,320.00
2018-04-13T04:54:36.213Z,344.00
2018-04-13T04:55:36.134Z,368.00
2018-04-13T04:56:36.105Z,396.00
2018-04-13T04:57:36.057Z,420.00
2018-04-13T04:58:36.016Z,448.00
2018-04-13T04:59:36.020Z,480.00
2018-04-13T05:00:35.957Z,496.00
2018-04-13T05:01:35.893Z,504.00
2018-04-13T05:02:35.850Z,516.00
2018-04-13T05:03:35.825Z,556.00
2018-04-13T05:04:35.771Z,584.00
2018-04-13T05:05:35.753Z,596.00
2018-04-13T05:06:35.693Z,628.00
2018-04-13T05:07:35.651Z,668.00
2018-04-13T05:08:35.606Z,712.00
2018-04-13T05:09:35.570Z,756.00
2018-04-13T05:10:35.515Z,808.00
2018-04-13T05:11:35.508Z,856.00
2018-04-13T05:12:35.432Z,908.00
2018-04-13T05:13:35.404Z,956.00
2018-04-13T05:14:35.356Z,1004.00
2018-04-13T05:15:35.321Z,1056.00
2018-04-13T05:16:35.302Z,1108.00
2018-04-13T05:17:35.235Z,1144.00
2018-04-13T05:18:35.199Z,1176.00
2018-04-13T05:19:35.145Z,1220.00
2018-04-13T05:20:35.111Z,1252.00
2018-04-13T05:21:35.072Z,1272.00
2018-04-13T05:22:35.078Z,1296.00
2018-04-13T05:23:34.990Z,1324.00
2018-04-13T05:24:34.951Z,1332.00
2018-04-13T05:25:34.901Z,1356.00
2018-04-13T05:26:34.869Z,1388.00
2018-04-13T05:27:34.825Z,1404.00
2018-04-13T05:28:34.820Z,1404.00
2018-04-13T05:29:34.752Z,1452.00
2018-04-13T05:30:34.706Z,1536.00
2018-04-13T05:31:34.676Z,1612.00
2018-04-13T05:32:34.615Z,1688.00
2018-04-13T05:33:34.608Z,1764.00
2018-04-13T05:34:34.545Z,1796.00
2018-04-13T05:35:34.495Z,1812.00
2018-04-13T05:36:34.464Z,1820.00
2018-04-13T05:37:34.413Z,1800.00
2018-04-13T05:38:34.382Z,1784.00
2018-04-13T05:39:34.368Z,1764.00
2018-04-13T05:40:34.297Z,1756.00
2018-04-13T05:41:34.259Z,1776.00
2018-04-13T05:42:34.207Z,1816.00
2018-04-13T05:43:34.169Z,1860.00
2018-04-13T05:44:34.132Z,1884.00
2018-04-13T05:45:34.130Z,1948.00
2018-04-13T05:46:34.051Z,2040.00
2018-04-13T05:47:34.008Z,2140.00
2018-04-13T05:48:33.966Z,2240.00
2018-04-13T05:49:33.935Z,2344.00
2018-04-13T05:50:33.897Z,2460.00
2018-04-13T05:51:33.871Z,2584.00
2018-04-13T05:52:33.807Z,2716.00
2018-04-13T05:53:33.775Z,2836.00
2018-04-13T05:54:33.732Z,2920.00
2018-04-13T05:55:33.687Z,2972.00
2018-04-13T05:56:33.671Z,3036.00
2018-04-13T05:57:33.609Z,3108.00
2018-04-13T05:58:33.567Z,3160.00
2018-04-13T05:59:33.528Z,3204.00
2018-04-13T06:00:33.484Z,3244.00
2018-04-13T06:01:33.436Z,3272.00
2018-04-13T06:02:33.440Z,3308.00
2018-04-13T06:03:33.443Z,3336.00
2018-04-13T06:04:33.325Z,3356.00
2018-04-13T06:05:33.294Z,3392.00
2018-04-13T06:06:33.257Z,3432.00
2018-04-13T06:07:33.208Z,3488.00
2018-04-13T06:08:33.195Z,3556.00
2018-04-13T06:09:33.125Z,3620.00
2018-04-13T06:10:33.082Z,3704.00
2018-04-13T06:11:33.053Z,3784.00
2018-04-13T06:12:33.009Z,3852.00
2018-04-13T06:13:33.035Z,3920.00
2018-04-13T06:14:32.928Z,3992.00
2018-04-13T06:15:32.889Z,4064.00
2018-04-13T06:16:32.841Z,4136.00
2018-04-13T06:17:32.810Z,4212.00
2018-04-13T06:18:33.691Z,4284.00
2018-04-13T06:19:32.762Z,4360.00
2018-04-13T06:20:32.685Z,4436.00
2018-04-13T06:21:32.646Z,4512.00
2018-04-13T06:22:32.618Z,4592.00
2018-04-13T06:23:32.566Z,4672.00
2018-04-13T06:24:32.534Z,4752.00
2018-04-13T06:25:32.520Z,4824.00
2018-04-13T06:26:32.444Z,4884.00
2018-04-13T06:27:32.412Z,4932.00
2018-04-13T06:28:32.373Z,4996.00
2018-04-13T06:29:32.352Z,5072.00
2018-04-13T06:30:32.318Z,5144.00
2018-04-13T06:31:32.269Z,5240.00
2018-04-13T06:32:32.218Z,5328.00
2018-04-13T06:33:32.180Z,5408.00
2018-04-13T06:34:32.136Z,5480.00
2018-04-13T06:35:32.093Z,5524.00
2018-04-13T06:36:32.078Z,5564.00
2018-04-13T06:37:32.020Z,5632.00
2018-04-13T06:38:31.980Z,5688.00
2018-04-13T06:39:31.943Z,5744.00
2018-04-13T06:40:31.904Z,5776.00
2018-04-13T06:41:31.876Z,5800.00
2018-04-13T06:42:31.856Z,5816.00
2018-04-13T06:43:31.783Z,5836.00
2018-04-13T06:44:31.738Z,5864.00
2018-04-13T06:45:31.701Z,5892.00
2018-04-13T06:46:31.659Z,5932.00
2018-04-13T06:47:31.635Z,5984.00
2018-04-13T06:48:31.619Z,6032.00
2018-04-13T06:49:31.558Z,6084.00
2018-04-13T06:50:31.514Z,6144.00
2018-04-13T06:51:31.482Z,6228.00
2018-04-13T06:52:31.443Z,6320.00
2018-04-13T06:53:31.419Z,6440.00
2018-04-13T06:54:31.365Z,6548.00
2018-04-13T06:55:31.315Z,6644.00
2018-04-13T06:56:31.280Z,6732.00
2018-04-13T06:57:31.237Z,6824.00
2018-04-13T06:58:31.204Z,6880.00
2018-04-13T06:59:31.186Z,6976.00
2018-04-13T07:00:31.137Z,7000.00
2018-04-13T07:01:31.094Z,7152.00
2018-04-13T07:02:31.101Z,7036.00
2018-04-13T07:03:31.012Z,6928.00
2018-04-13T07:04:30.979Z,7040.00
2018-04-13T07:05:30.961Z,6980.00
2018-04-13T07:06:30.885Z,6988.00
2018-04-13T07:07:30.857Z,7092.00
2018-04-13T07:08:30.809Z,7212.00
2018-04-13T07:09:30.782Z,7456.00
2018-04-13T07:10:30.784Z,7536.00
2018-04-13T07:11:30.698Z,7912.00
2018-04-13T07:12:30.660Z,7920.00
2018-04-13T07:13:30.639Z,7848.00
2018-04-13T07:14:30.583Z,7952.00
2018-04-13T07:15:30.551Z,7876.00
2018-04-13T07:16:30.536Z,7832.00
2018-04-13T07:17:30.483Z,7832.00
2018-04-13T07:18:30.431Z,7652.00
2018-04-13T07:19:30.400Z,7496.00
2018-04-13T07:20:30.363Z,7568.00
2018-04-13T07:21:30.311Z,7712.00
2018-04-13T07:22:30.307Z,7784.00
2018-04-13T07:23:30.241Z,7852.00
2018-04-13T07:24:30.205Z,7892.00
2018-04-13T07:25:30.167Z,7940.00
2018-04-13T07:26:30.131Z,7800.00
2018-04-13T07:27:30.123Z,7556.00
2018-04-13T07:28:30.065Z,7364.00
2018-04-13T07:29:30.014Z,7352.00
2018-04-13T07:30:30.011Z,7248.00
2018-04-13T07:31:29.938Z,7268.00
2018-04-13T07:32:29.907Z,7216.00
2018-04-13T07:33:29.907Z,7236.00
2018-04-13T07:34:29.870Z,7088.00
2018-04-13T07:35:29.788Z,7036.00
2018-04-13T07:36:29.754Z,7036.00
2018-04-13T07:37:29.721Z,6988.00
2018-04-13T07:38:29.673Z,7016.00
2018-04-13T07:39:29.664Z,7028.00
2018-04-13T07:40:29.795Z,7100.00
2018-04-13T07:41:29.560Z,7152.00
2018-04-13T07:42:29.528Z,7248.00
2018-04-13T07:43:29.491Z,7368.00
2018-04-13T07:44:29.479Z,7472.00
2018-04-13T07:45:29.418Z,7624.00
2018-04-13T07:46:29.392Z,7792.00
2018-04-13T07:47:29.341Z,7820.00
2018-04-13T07:48:29.301Z,7768.00
2018-04-13T07:49:29.259Z,7904.00
2018-04-13T07:50:29.259Z,7948.00
2018-04-13T07:51:29.178Z,8004.00
2018-04-13T07:52:29.166Z,8060.00
2018-04-13T07:53:29.130Z,8292.00
2018-04-13T07:54:29.077Z,8520.00
2018-04-13T07:55:29.033Z,8976.00
2018-04-13T07:56:29.054Z,9196.00
2018-04-13T07:57:28.958Z,9496.00
2018-04-13T07:58:28.916Z,9352.00
2018-04-13T07:59:28.897Z,9436.00
2018-04-13T08:00:28.841Z,9444.00
2018-04-13T08:01:28.809Z,9748.00
2018-04-13T08:02:28.809Z,9668.00
2018-04-13T08:03:28.740Z,9776.00
2018-04-13T08:04:28.693Z,9928.00
2018-04-13T08:05:28.673Z,10028.00
2018-04-13T08:06:28.627Z,10184.00
2018-04-13T08:07:28.620Z,10356.00
2018-04-13T08:08:28.546Z,10816.00
2018-04-13T08:09:28.982Z,11176.00
2018-04-13T08:10:28.467Z,11440.00
2018-04-13T08:11:28.443Z,11628.00
2018-04-13T08:12:28.402Z,11676.00
2018-04-13T08:13:28.413Z,11628.00
2018-04-13T08:14:28.326Z,11520.00
2018-04-13T08:15:28.298Z,11368.00
2018-04-13T08:16:28.253Z,11140.00
2018-04-13T08:17:28.216Z,10924.00
2018-04-13T08:18:28.173Z,10748.00
2018-04-13T08:19:28.168Z,10572.00
2018-04-13T08:20:28.127Z,10352.00
2018-04-13T08:21:28.063Z,10132.00
2018-04-13T08:22:28.033Z,9944.00
2018-04-13T08:23:27.995Z,9784.00
2018-04-13T08:24:28.003Z,9656.00
2018-04-13T08:25:27.920Z,9556.00
2018-04-13T08:26:27.926Z,9480.00
2018-04-13T08:27:27.870Z,9448.00
2018-04-13T08:28:27.819Z,9420.00
2018-04-13T08:29:27.772Z,9388.00
2018-04-13T08:30:27.773Z,9300.00
2018-04-13T08:31:27.695Z,9208.00
2018-04-13T08:32:27.682Z,9112.00
2018-04-13T08:33:27.615Z,9048.00
2018-04-13T08:34:27.590Z,9012.00
2018-04-13T08:35:27.548Z,8992.00
2018-04-13T08:36:27.573Z,8964.00
2018-04-13T08:37:27.475Z,8928.00
2018-04-13T08:38:27.467Z,8896.00
2018-04-13T08:39:27.409Z,8856.00
2018-04-13T08:40:27.355Z,8820.00
2018-04-13T08:41:27.354Z,8788.00
2018-04-13T08:42:27.327Z,8760.00
2018-04-13T08:43:27.269Z,8740.00
2018-04-13T08:44:27.224Z,8776.00
2018-04-13T08:45:27.200Z,8852.00
2018-04-13T08:46:27.172Z,9000.00
2018-04-13T08:47:27.146Z,9176.00
2018-04-13T08:48:27.069Z,9340.00
2018-04-13T08:49:27.037Z,9496.00
2018-04-13T08:50:26.995Z,9624.00
2018-04-13T08:51:26.980Z,9752.00
2018-04-13T08:52:26.958Z,9872.00
2018-04-13T08:53:26.932Z,10000.00
2018-04-13T08:54:26.846Z,10152.00
2018-04-13T08:55:26.810Z,10324.00
2018-04-13T08:56:26.772Z,10500.00
2018-04-13T08:57:26.742Z,10672.00
2018-04-13T08:58:26.696Z,10876.00
2018-04-13T08:59:26.701Z,11176.00
2018-04-13T09:00:26.619Z,11552.00
2018-04-13T09:01:26.594Z,12028.00
2018-04-13T09:02:26.551Z,12564.00
2018-04-13T09:03:26.522Z,13100.00
2018-04-13T09:04:26.512Z,13604.00
2018-04-13T09:05:26.439Z,14076.00
2018-04-13T09:06:26.452Z,14524.00
2018-04-13T09:07:26.373Z,14940.00
2018-04-13T09:08:26.336Z,15308.00
2018-04-13T09:09:26.298Z,15636.00
2018-04-13T09:10:26.283Z,15956.00
2018-04-13T09:11:26.232Z,16232.00
2018-04-13T09:12:26.180Z,16348.00
2018-04-13T09:13:26.151Z,16580.00
2018-04-13T09:14:26.117Z,16992.00
2018-04-13T09:15:26.086Z,17152.00
2018-04-13T09:16:26.079Z,17440.00
2018-04-13T09:17:26.011Z,17312.00
2018-04-13T09:18:25.976Z,17088.00
2018-04-13T09:19:25.937Z,17056.00
2018-04-13T09:20:25.903Z,17856.00
2018-04-13T09:21:25.905Z,18272.00
2018-04-13T09:22:25.833Z,17120.00
2018-04-13T09:23:25.798Z,15636.00
2018-04-13T09:24:25.760Z,15236.00
2018-04-13T09:25:25.733Z,15608.00
2018-04-13T09:26:25.699Z,15416.00
2018-04-13T09:27:25.686Z,15636.00
2018-04-13T09:28:25.619Z,16568.00
2018-04-13T09:29:25.590Z,17664.00
2018-04-13T09:30:25.569Z,19264.00
2018-04-13T09:31:25.526Z,19840.00
2018-04-13T09:32:25.481Z,18912.00
2018-04-13T09:33:25.483Z,17792.00
2018-04-13T09:34:25.413Z,16788.00
2018-04-13T09:35:25.383Z,15800.00
2018-04-13T09:36:25.358Z,15072.00
2018-04-13T09:37:25.316Z,14348.00
2018-04-13T09:38:25.313Z,13992.00
2018-04-13T09:39:25.292Z,14044.00
2018-04-13T09:40:25.237Z,14536.00
2018-04-13T09:41:25.183Z,14992.00
2018-04-13T09:42:25.149Z,15560.00
2018-04-13T09:43:25.115Z,15944.00
2018-04-13T09:44:25.143Z,16100.00
2018-04-13T09:45:25.049Z,16200.00
2018-04-13T09:46:25.017Z,16072.00
2018-04-13T09:47:24.991Z,15948.00
2018-04-13T09:48:24.955Z,15880.00
2018-04-13T09:49:24.924Z,15796.00
2018-04-13T09:50:24.913Z,15476.00
2018-04-13T09:51:24.847Z,15068.00
2018-04-13T09:52:24.821Z,14636.00
2018-04-13T09:53:24.785Z,14276.00
2018-04-13T09:54:24.747Z,13868.00
2018-04-13T09:55:24.724Z,13456.00
2018-04-13T09:56:24.707Z,13008.00
2018-04-13T09:57:24.639Z,12476.00
2018-04-13T09:58:24.609Z,11968.00
2018-04-13T09:59:24.580Z,11516.00
2018-04-13T10:00:24.547Z,11080.00
2018-04-13T10:01:24.540Z,10656.00
2018-04-13T10:02:24.478Z,10268.00
2018-04-13T10:03:24.447Z,9908.00
2018-04-13T10:04:24.415Z,9572.00
2018-04-13T10:05:24.379Z,9256.00
2018-04-13T10:06:24.372Z,9008.00
2018-04-13T10:07:24.309Z,8812.00
2018-04-13T10:08:24.277Z,8688.00
2018-04-13T10:09:24.232Z,8608.00
2018-04-13T10:10:24.204Z,8576.00
2018-04-13T10:11:24.198Z,8604.00
2018-04-13T10:12:24.178Z,8660.00
2018-04-13T10:13:24.095Z,8744.00
2018-04-13T10:14:24.057Z,8820.00
2018-04-13T10:15:24.029Z,8904.00
2018-04-13T10:16:23.986Z,8984.00
2018-04-13T10:17:23.990Z,9060.00
2018-04-13T10:18:23.922Z,9136.00
2018-04-13T10:19:23.887Z,9212.00
2018-04-13T10:20:23.857Z,9304.00
2018-04-13T10:21:23.822Z,9400.00
2018-04-13T10:22:23.786Z,9504.00
2018-04-13T10:23:23.774Z,9620.00
2018-04-13T10:24:23.701Z,9744.00
2018-04-13T10:25:23.671Z,9908.00
2018-04-13T10:26:23.641Z,10080.00
2018-04-13T10:27:23.609Z,10240.00
2018-04-13T10:28:23.616Z,10416.00
2018-04-13T10:29:23.532Z,10640.00
2018-04-13T10:30:23.494Z,10876.00
2018-04-13T10:31:23.460Z,11056.00
2018-04-13T10:32:23.432Z,11132.00
2018-04-13T10:33:23.382Z,11120.00
2018-04-13T10:34:23.382Z,11048.00
2018-04-13T10:35:23.323Z,10956.00
2018-04-13T10:36:23.281Z,10852.00
2018-04-13T10:37:23.244Z,10720.00
2018-04-13T10:38:23.217Z,10548.00
2018-04-13T10:39:23.186Z,10376.00
2018-04-13T10:40:23.169Z,10280.00
2018-04-13T10:41:23.110Z,10252.00
2018-04-13T10:42:23.078Z,10228.00
2018-04-13T10:43:23.043Z,10192.00
2018-04-13T10:44:22.990Z,10132.00
2018-04-13T10:45:22.999Z,10072.00
2018-04-13T10:46:22.926Z,10016.00
2018-04-13T10:47:22.897Z,9892.00
2018-04-13T10:48:22.854Z,9752.00
2018-04-13T10:49:22.855Z,9576.00
2018-04-13T10:50:22.785Z,9428.00
2018-04-13T10:51:22.785Z,9292.00
2018-04-13T10:52:22.714Z,9156.00
2018-04-13T10:53:22.670Z,9048.00
2018-04-13T10:54:22.642Z,8960.00
2018-04-13T10:55:22.602Z,8936.00
2018-04-13T10:56:22.571Z,8972.00
2018-04-13T10:57:22.567Z,9052.00
2018-04-13T10:58:22.491Z,9164.00
2018-04-13T10:59:22.463Z,9300.00
2018-04-13T11:00:22.424Z,9452.00
2018-04-13T11:01:22.389Z,9600.00
2018-04-13T11:02:22.395Z,9748.00
2018-04-13T11:03:22.320Z,9924.00
2018-04-13T11:04:22.281Z,10080.00
2018-04-13T11:05:22.261Z,10224.00
2018-04-13T11:06:22.223Z,10388.00
2018-04-13T11:07:22.172Z,10584.00
2018-04-13T11:08:22.163Z,10840.00
2018-04-13T11:09:22.116Z,11144.00
2018-04-13T11:10:22.116Z,11500.00
2018-04-13T11:11:22.032Z,11932.00
2018-04-13T11:12:21.992Z,12440.00
2018-04-13T11:13:21.992Z,12940.00
2018-04-13T11:14:21.922Z,13308.00
2018-04-13T11:15:21.888Z,13380.00
2018-04-13T11:16:21.849Z,12976.00
2018-04-13T11:17:21.845Z,12256.00
2018-04-13T11:18:21.791Z,11500.00
2018-04-13T11:19:21.775Z,10908.00
2018-04-13T11:20:21.714Z,10400.00
2018-04-13T11:21:21.671Z,9988.00
2018-04-13T11:22:21.646Z,9684.00
2018-04-13T11:23:21.600Z,9516.00
2018-04-13T11:24:21.574Z,9524.00
2018-04-13T11:25:21.569Z,9684.00
2018-04-13T11:26:21.499Z,9972.00
2018-04-13T11:27:21.459Z,10260.00
2018-04-13T11:28:21.430Z,10436.00
2018-04-13T11:29:21.391Z,10424.00
2018-04-13T11:30:21.386Z,10280.00
2018-04-13T11:31:21.319Z,10060.00
2018-04-13T11:32:21.277Z,9916.00
2018-04-13T11:33:21.241Z,9884.00
2018-04-13T11:34:21.253Z,9888.00
2018-04-13T11:35:21.174Z,9884.00
2018-04-13T11:36:21.167Z,9860.00
2018-04-13T11:37:21.103Z,9868.00
2018-04-13T11:38:21.065Z,9980.00
2018-04-13T11:39:21.030Z,10208.00
2018-04-13T11:40:20.998Z,10576.00
2018-04-13T11:41:20.958Z,11064.00
2018-04-13T11:42:20.955Z,11676.00
2018-04-13T11:43:20.890Z,12368.00
2018-04-13T11:44:20.851Z,13048.00
2018-04-13T11:45:20.830Z,13640.00
2018-04-13T11:46:20.778Z,14040.00
2018-04-13T11:47:20.770Z,14264.00
2018-04-13T11:48:20.708Z,14380.00
2018-04-13T11:49:20.667Z,14544.00
2018-04-13T11:50:20.643Z,14880.00
2018-04-13T11:51:20.603Z,15308.00
2018-04-13T11:52:20.573Z,15712.00
2018-04-13T11:53:20.564Z,15984.00
2018-04-13T11:54:20.503Z,16140.00
2018-04-13T11:55:20.467Z,16192.00
2018-04-13T11:56:20.425Z,16228.00
2018-04-13T11:57:20.385Z,16264.00
2018-04-13T11:58:20.354Z,16436.00
2018-04-13T11:59:20.361Z,16520.00
2018-04-13T12:00:20.287Z,16660.00
2018-04-13T12:01:20.252Z,16796.00
2018-04-13T12:02:20.219Z,17184.00
2018-04-13T12:03:20.182Z,17536.00
2018-04-13T12:04:20.172Z,17760.00
2018-04-13T12:05:20.128Z,18080.00
2018-04-13T12:06:20.080Z,18080.00
2018-04-13T12:07:20.054Z,17984.00
2018-04-13T12:08:20.003Z,18016.00
2018-04-13T12:09:19.976Z,18176.00
2018-04-13T12:10:19.960Z,18496.00
2018-04-13T12:11:19.926Z,18624.00
2018-04-13T12:12:19.867Z,18624.00
2018-04-13T12:13:19.838Z,18528.00
2018-04-13T12:14:19.802Z,18688.00
2018-04-13T12:15:19.783Z,18880.00
2018-04-13T12:16:19.763Z,19040.00
2018-04-13T12:17:19.716Z,19424.00
2018-04-13T12:18:19.662Z,19680.00
2018-04-13T12:19:19.639Z,19808.00
2018-04-13T12:20:19.614Z,19616.00
2018-04-13T12:21:19.563Z,19200.00
2018-04-13T12:22:19.566Z,18528.00
2018-04-13T12:23:19.514Z,17696.00
2018-04-13T12:24:19.489Z,16740.00
2018-04-13T12:25:19.436Z,16032.00
2018-04-13T12:26:19.403Z,15520.00